Decoded Metar for LZPP (PIESTANY in SLOVAKIA) (IATA:PZY) | Meteo·Mobile Aviation Weather
aviador You're here:

LZPP Decoded Metar

PIESTANY in SLOVAKIA
Report Time2019-11-14 11:30:00
UTC Time2019-11-14 11:56:28
Flight Rules vfr VFR
WindVRB at 03 kt
Visibility9999 m
Phenomena:N/A
Clouds:N/A
Expected CloudBase > 1,600 ft AGL from Temp-Dew spread
CeilingNone
Temp08°C (ISA -6)
Dew Point04°C (76% RH)
AAT5.6°C
QNH1012 hPa
Density Alt-39 ft
Elevation528 ft
Report Wrong Elevation
Raw Report
LZPP 141130Z VRB03KT CAVOK 08/04 Q1012=

Extra information for LZPP:More info

Metar Taf Metar & Taf Last 4 Metars F.Rules Stats Wind Profile Meteogram Temp Stats Airport Information Weather charts Add Link Nearby VenuesMetar ALERT Operation Metar Decoded Social comments